Time;durP1;ratioP1;P1;durP2;ratioP2;P2;SDS_P1;SDS_P2;PMS_P1;PMS_P2;Temp;Humidity;BMP_temperature;BMP_pressure;BME280_temperature;BME280_humidity;BME280_pressure;Samples;Min_cycle;Max_cycle;Signal;HPM_P1;HPM_P2
2023/05/17 00:01:41;;;;;;;;;;;9.80;99.90;;;;;;5102136;27;20760;-85
2023/05/17 00:04:07;;;;;;;;;;;9.80;99.90;;;;;;5103205;27;19942;-85
2023/05/17 00:06:33;;;;;;;;;;;9.80;99.90;;;;;;5102959;27;19927;-85
2023/05/17 00:08:59;;;;;;;;;;;9.80;99.90;;;;;;5104477;27;20014;-85
2023/05/17 00:11:25;;;;;;;;;;;9.80;99.90;;;;;;5104309;27;20038;-84
2023/05/17 00:13:50;;;;;;;;;;;9.80;99.90;;;;;;5103401;27;20503;-85
2023/05/17 00:16:16;;;;;;;;;;;9.70;99.90;;;;;;5087040;27;19934;-85
2023/05/17 00:18:42;;;;;;;;;;;9.70;99.90;;;;;;5097213;27;20015;-85
2023/05/17 00:21:07;;;;;;;;;;;9.70;99.90;;;;;;5101193;27;20443;-85
2023/05/17 00:23:36;;;;;;;;;;;9.70;99.90;;;;;;5104229;27;19928;-85
2023/05/17 00:26:01;;;;;;;;;;;9.70;99.90;;;;;;5101276;27;20269;-85
2023/05/17 00:28:27;;;;;;;;;;;9.70;99.90;;;;;;5088925;27;19933;-85
2023/05/17 00:30:52;;;;;;;;;;;9.70;99.90;;;;;;5103947;27;20004;-85
2023/05/17 00:33:18;;;;;;;;;;;9.70;99.90;;;;;;5099617;27;19927;-85
2023/05/17 00:35:44;;;;;;;;;;;9.70;99.90;;;;;;5103766;27;20003;-85
2023/05/17 00:38:09;;;;;;;;;;;9.70;99.90;;;;;;5102549;27;19923;-87
2023/05/17 00:40:35;;;;;;;;;;;9.70;99.90;;;;;;5104092;27;19931;-85
2023/05/17 00:43:00;;;;;;;;;;;9.70;99.90;;;;;;5104609;27;19927;-85
2023/05/17 00:45:26;;;;;;;;;;;9.70;99.90;;;;;;5100323;27;19933;-84
2023/05/17 00:47:51;;;;;;;;;;;9.70;99.90;;;;;;5101936;27;19927;-85
2023/05/17 00:50:17;;;;;;;;;;;9.60;99.90;;;;;;5101519;27;20546;-85
2023/05/17 00:52:43;;;;;;;;;;;9.60;99.90;;;;;;5103900;27;20096;-83
2023/05/17 00:55:08;;;;;;;;;;;9.60;99.90;;;;;;5102434;27;19928;-84
2023/05/17 00:57:34;;;;;;;;;;;9.60;99.90;;;;;;5100656;27;19927;-85
2023/05/17 01:00:00;;;;;;;;;;;9.60;99.90;;;;;;5122372;27;19931;-84
2023/05/17 01:02:25;;;;;;;;;;;9.60;99.90;;;;;;5097766;27;20633;-83
2023/05/17 01:04:51;;;;;;;;;;;9.40;99.90;;;;;;5102168;27;19928;-84
2023/05/17 01:07:17;;;;;;;;;;;9.40;99.90;;;;;;5105192;27;19977;-84
2023/05/17 01:09:43;;;;;;;;;;;9.30;99.90;;;;;;5103404;27;19931;-85
2023/05/17 01:12:14;;;;;;;;;;;9.20;99.90;;;;;;5101198;27;20697;-85
2023/05/17 01:14:51;;;;;;;;;;;9.30;99.90;;;;;;5104072;27;20007;-84
2023/05/17 01:17:24;;;;;;;;;;;9.30;99.90;;;;;;5098197;27;19970;-85
2023/05/17 01:19:59;;;;;;;;;;;9.20;99.90;;;;;;5103959;27;19935;-85
2023/05/17 01:22:24;;;;;;;;;;;9.10;99.90;;;;;;5101692;27;19934;-85
2023/05/17 01:25:09;;;;;;;;;;;9.10;99.90;;;;;;5103915;27;19923;-85
2023/05/17 01:27:35;;;;;;;;;;;9.00;99.90;;;;;;5102987;27;19949;-85
2023/05/17 01:30:01;;;;;;;;;;;9.00;99.90;;;;;;5102847;27;19992;-84
2023/05/17 01:32:27;;;;;;;;;;;9.00;99.90;;;;;;5104209;27;19957;-85
2023/05/17 01:34:52;;;;;;;;;;;8.90;99.90;;;;;;5120630;27;19924;-85
2023/05/17 01:37:18;;;;;;;;;;;8.90;99.90;;;;;;5104254;27;19979;-84
2023/05/17 01:39:43;;;;;;;;;;;8.90;99.90;;;;;;5103097;27;20475;-83
2023/05/17 01:42:12;;;;;;;;;;;8.90;99.90;;;;;;5104548;27;19985;-84
2023/05/17 01:44:38;;;;;;;;;;;8.90;99.90;;;;;;5110584;27;20644;-84
2023/05/17 01:47:08;;;;;;;;;;;8.80;99.90;;;;;;5103075;27;19938;-85
2023/05/17 01:49:37;;;;;;;;;;;8.80;99.90;;;;;;5083484;27;19980;-84
2023/05/17 01:52:17;;;;;;;;;;;8.80;99.90;;;;;;5102710;27;19943;-84
2023/05/17 01:55:02;;;;;;;;;;;8.70;99.90;;;;;;5105150;27;20414;-84
2023/05/17 01:57:29;;;;;;;;;;;8.70;99.90;;;;;;5119944;27;19932;-85
2023/05/17 01:59:58;;;;;;;;;;;8.80;99.90;;;;;;5103784;27;19927;-84
2023/05/17 02:02:24;;;;;;;;;;;8.80;99.90;;;;;;5105394;28;19927;-84
2023/05/17 02:04:50;;;;;;;;;;;8.80;99.90;;;;;;5096292;27;19934;-84
2023/05/17 02:07:15;;;;;;;;;;;8.80;99.90;;;;;;5106744;28;19924;-86
2023/05/17 02:09:41;;;;;;;;;;;8.70;99.90;;;;;;5103279;28;20645;-84
2023/05/17 02:12:07;;;;;;;;;;;8.80;99.90;;;;;;5105324;28;19996;-85
2023/05/17 02:14:32;;;;;;;;;;;8.90;99.90;;;;;;5105541;27;20451;-85
2023/05/17 02:16:58;;;;;;;;;;;8.90;99.90;;;;;;5089922;28;19927;-85
2023/05/17 02:19:23;;;;;;;;;;;9.00;99.90;;;;;;5104928;28;20531;-85
2023/05/17 02:21:49;;;;;;;;;;;9.00;99.90;;;;;;5103432;28;19924;-84
2023/05/17 02:24:14;;;;;;;;;;;9.10;99.90;;;;;;5105866;28;19931;-85
2023/05/17 02:26:41;;;;;;;;;;;9.10;99.90;;;;;;5086220;28;19931;-85
2023/05/17 02:29:08;;;;;;;;;;;9.00;99.90;;;;;;5105381;27;19938;-85
2023/05/17 02:31:34;;;;;;;;;;;9.00;99.90;;;;;;5109352;27;19939;-84
2023/05/17 02:33:59;;;;;;;;;;;9.00;99.90;;;;;;5107280;27;19931;-85
2023/05/17 02:36:25;;;;;;;;;;;9.00;99.90;;;;;;5106474;27;19931;-84
2023/05/17 02:38:50;;;;;;;;;;;9.10;99.90;;;;;;5106803;27;19927;-86
2023/05/17 02:41:16;;;;;;;;;;;9.00;99.90;;;;;;5109735;27;19937;-85
2023/05/17 02:43:42;;;;;;;;;;;9.00;99.90;;;;;;5107444;27;19934;-85
2023/05/17 02:46:08;;;;;;;;;;;9.00;99.90;;;;;;5103219;27;20054;-84
2023/05/17 02:48:33;;;;;;;;;;;8.90;99.90;;;;;;5109117;27;19927;-84
2023/05/17 02:50:59;;;;;;;;;;;8.90;99.90;;;;;;5106968;27;20414;-85
2023/05/17 02:53:30;;;;;;;;;;;8.90;99.90;;;;;;5106568;27;19931;-82
2023/05/17 02:55:56;;;;;;;;;;;8.90;99.90;;;;;;5092001;27;20407;-85
2023/05/17 02:58:23;;;;;;;;;;;8.80;99.90;;;;;;5108551;27;19949;-83
2023/05/17 03:00:48;;;;;;;;;;;8.70;99.90;;;;;;5108537;27;20042;-84
2023/05/17 03:03:14;;;;;;;;;;;8.70;99.90;;;;;;5105940;27;20010;-83
2023/05/17 03:05:40;;;;;;;;;;;8.70;99.90;;;;;;5109878;27;19938;-83
2023/05/17 03:08:05;;;;;;;;;;;8.60;99.90;;;;;;5108346;27;19931;-84
2023/05/17 03:10:31;;;;;;;;;;;8.60;99.90;;;;;;5104317;27;19934;-84
2023/05/17 03:12:56;;;;;;;;;;;8.50;99.90;;;;;;5107639;27;19932;-84
2023/05/17 03:15:25;;;;;;;;;;;8.50;99.90;;;;;;5091710;27;20080;-84
2023/05/17 03:17:51;;;;;;;;;;;8.50;99.90;;;;;;5108785;27;19923;-84
2023/05/17 03:20:17;;;;;;;;;;;8.40;99.90;;;;;;5106123;27;19932;-84
2023/05/17 03:22:42;;;;;;;;;;;8.40;99.90;;;;;;5105781;27;19934;-85
2023/05/17 03:25:08;;;;;;;;;;;8.40;99.90;;;;;;5103971;27;20319;-83
2023/05/17 03:27:34;;;;;;;;;;;8.30;99.90;;;;;;5106830;27;19928;-85
2023/05/17 03:29:59;;;;;;;;;;;8.40;99.90;;;;;;5107207;27;19932;-83
2023/05/17 03:32:25;;;;;;;;;;;8.30;99.90;;;;;;5108734;27;19927;-84
2023/05/17 03:34:51;;;;;;;;;;;8.30;99.90;;;;;;5127256;27;19934;-85
2023/05/17 03:37:16;;;;;;;;;;;8.20;99.90;;;;;;5090537;27;19935;-85
2023/05/17 03:39:42;;;;;;;;;;;8.20;99.90;;;;;;5107298;27;19976;-86
2023/05/17 03:42:07;;;;;;;;;;;8.20;99.90;;;;;;5106265;27;20388;-82
2023/05/17 03:44:33;;;;;;;;;;;8.20;99.90;;;;;;5102379;27;19943;-86
2023/05/17 03:46:58;;;;;;;;;;;8.20;99.90;;;;;;5107642;27;20542;-85
2023/05/17 03:49:24;;;;;;;;;;;8.20;99.90;;;;;;5106372;27;19961;-85
2023/05/17 03:51:50;;;;;;;;;;;8.20;99.90;;;;;;5106869;27;19927;-85
2023/05/17 03:54:15;;;;;;;;;;;8.20;99.90;;;;;;5107401;27;19967;-86
2023/05/17 03:56:45;;;;;;;;;;;8.20;99.90;;;;;;5104628;27;19932;-84
2023/05/17 03:59:15;;;;;;;;;;;8.20;99.90;;;;;;5103866;27;19928;-85
2023/05/17 04:01:42;;;;;;;;;;;8.20;99.90;;;;;;5105386;27;19980;-85
2023/05/17 04:04:07;;;;;;;;;;;8.10;99.90;;;;;;5105158;27;20414;-87
2023/05/17 04:06:33;;;;;;;;;;;8.20;99.90;;;;;;5108857;27;19931;-86
2023/05/17 04:08:59;;;;;;;;;;;8.20;99.90;;;;;;5106524;27;20367;-86
2023/05/17 04:11:26;;;;;;;;;;;8.20;99.90;;;;;;5086785;27;21183;-85
2023/05/17 04:13:52;;;;;;;;;;;8.20;99.90;;;;;;5088854;27;19975;-85
2023/05/17 04:16:17;;;;;;;;;;;8.20;99.90;;;;;;5105997;27;19974;-84
2023/05/17 04:18:44;;;;;;;;;;;8.30;99.90;;;;;;5103629;27;20010;-85
2023/05/17 04:21:09;;;;;;;;;;;8.40;99.90;;;;;;5105357;27;20501;-85
2023/05/17 04:23:35;;;;;;;;;;;8.30;99.90;;;;;;5105139;27;19958;-85
2023/05/17 04:26:02;;;;;;;;;;;8.30;99.90;;;;;;5103207;27;19996;-85
2023/05/17 04:28:27;;;;;;;;;;;8.40;99.90;;;;;;5101321;27;19982;-84
2023/05/17 04:30:54;;;;;;;;;;;8.50;99.90;;;;;;5102164;27;19935;-84
2023/05/17 04:33:19;;;;;;;;;;;8.50;99.90;;;;;;5085987;27;20452;-84
2023/05/17 04:35:45;;;;;;;;;;;8.50;99.90;;;;;;5103477;27;19923;-85
2023/05/17 04:38:11;;;;;;;;;;;8.60;99.90;;;;;;5104475;27;20338;-85
2023/05/17 04:40:36;;;;;;;;;;;8.70;99.90;;;;;;5105026;27;19934;-85
2023/05/17 04:43:02;;;;;;;;;;;8.80;99.90;;;;;;5100987;27;20054;-84
2023/05/17 04:45:28;;;;;;;;;;;9.10;99.90;;;;;;5103093;27;20006;-84
2023/05/17 04:47:54;;;;;;;;;;;9.10;99.90;;;;;;5102578;27;19927;-85
2023/05/17 04:50:20;;;;;;;;;;;9.60;99.90;;;;;;5102406;27;19928;-87
2023/05/17 04:52:46;;;;;;;;;;;10.80;99.90;;;;;;5084115;27;20441;-85
2023/05/17 04:55:12;;;;;;;;;;;12.40;99.90;;;;;;5086393;27;19927;-84
2023/05/17 04:57:37;;;;;;;;;;;13.50;99.90;;;;;;5104728;27;20312;-85
2023/05/17 05:00:08;;;;;;;;;;;14.60;99.90;;;;;;5104955;27;20002;-86
2023/05/17 05:02:34;;;;;;;;;;;15.30;99.90;;;;;;5100833;27;19942;-86
2023/05/17 05:04:59;;;;;;;;;;;16.00;99.90;;;;;;5102555;27;19953;-85
2023/05/17 05:07:25;;;;;;;;;;;16.30;99.90;;;;;;5107662;27;19923;-85
2023/05/17 05:09:51;;;;;;;;;;;17.20;99.90;;;;;;5087693;27;19928;-84
2023/05/17 05:12:17;;;;;;;;;;;17.70;99.90;;;;;;5104926;27;20190;-86
2023/05/17 05:14:42;;;;;;;;;;;17.70;99.90;;;;;;5103451;27;19938;-85
2023/05/17 05:17:08;;;;;;;;;;;18.00;99.90;;;;;;5105744;27;19928;-86
2023/05/17 05:19:33;;;;;;;;;;;17.30;99.90;;;;;;5106341;27;19924;-86
2023/05/17 05:21:59;;;;;;;;;;;17.40;99.90;;;;;;5105688;27;19972;-88
2023/05/17 05:24:24;;;;;;;;;;;17.90;99.90;;;;;;5105602;27;20007;-87
2023/05/17 05:26:50;;;;;;;;;;;18.10;99.90;;;;;;5102828;27;19930;-85
2023/05/17 05:29:16;;;;;;;;;;;17.80;99.90;;;;;;5106717;27;19931;-87
2023/05/17 05:31:42;;;;;;;;;;;19.00;99.90;;;;;;5102496;27;19932;-87
2023/05/17 05:34:07;;;;;;;;;;;19.30;99.90;;;;;;5106958;28;19934;-84
2023/05/17 05:36:33;;;;;;;;;;;19.10;99.90;;;;;;5103212;27;19930;-85
2023/05/17 05:38:59;;;;;;;;;;;19.50;99.90;;;;;;5106322;27;19931;-84
2023/05/17 05:41:24;;;;;;;;;;;19.00;99.90;;;;;;5107224;27;19973;-84
2023/05/17 05:43:50;;;;;;;;;;;18.50;99.90;;;;;;5104980;27;19976;-85
2023/05/17 05:46:15;;;;;;;;;;;16.40;99.90;;;;;;5086476;27;20486;-84
2023/05/17 05:48:41;;;;;;;;;;;15.70;99.90;;;;;;5106966;27;19927;-84
2023/05/17 05:51:07;;;;;;;;;;;15.00;99.90;;;;;;5084713;28;20036;-86
2023/05/17 05:53:32;;;;;;;;;;;14.80;99.90;;;;;;5102352;28;19937;-86
2023/05/17 05:55:58;;;;;;;;;;;14.80;99.90;;;;;;5101669;28;19932;-85
2023/05/17 05:58:23;;;;;;;;;;;14.60;99.90;;;;;;5086419;27;19934;-84
2023/05/17 06:00:49;;;;;;;;;;;14.30;99.90;;;;;;5104068;27;19950;-85
2023/05/17 06:03:15;;;;;;;;;;;14.20;99.90;;;;;;5104278;27;19927;-83
2023/05/17 06:05:41;;;;;;;;;;;13.80;99.90;;;;;;5100305;28;19976;-86
2023/05/17 06:08:06;;;;;;;;;;;12.90;99.90;;;;;;5099272;28;19928;-85
2023/05/17 06:10:32;;;;;;;;;;;12.90;99.90;;;;;;5101741;28;19931;-86
2023/05/17 06:12:57;;;;;;;;;;;13.40;99.90;;;;;;5105313;28;20790;-84
2023/05/17 06:15:23;;;;;;;;;;;13.30;99.90;;;;;;5099676;28;20006;-85
2023/05/17 06:17:49;;;;;;;;;;;13.10;99.90;;;;;;5104829;28;19927;-83
2023/05/17 06:20:15;;;;;;;;;;;13.80;99.90;;;;;;5105523;28;19928;-87
2023/05/17 06:22:44;;;;;;;;;;;13.50;99.90;;;;;;5105452;28;20002;-85
2023/05/17 06:25:10;;;;;;;;;;;13.20;99.90;;;;;;5105002;28;19939;-87
2023/05/17 06:27:36;;;;;;;;;;;13.00;99.90;;;;;;5107567;28;19932;-86
2023/05/17 06:30:03;;;;;;;;;;;13.50;99.90;;;;;;5105926;28;19938;-83
2023/05/17 06:32:29;;;;;;;;;;;13.90;99.90;;;;;;5125578;28;19930;-84
2023/05/17 06:34:55;;;;;;;;;;;13.60;99.90;;;;;;5104415;27;20516;-84
2023/05/17 06:37:20;;;;;;;;;;;14.10;99.90;;;;;;5107538;28;19927;-89
2023/05/17 06:39:46;;;;;;;;;;;13.40;99.90;;;;;;5104908;27;20377;-86
2023/05/17 06:42:11;;;;;;;;;;;13.80;99.90;;;;;;5106776;28;19950;-86
2023/05/17 06:44:37;;;;;;;;;;;13.10;99.90;;;;;;5106377;28;20403;-86
2023/05/17 06:47:03;;;;;;;;;;;13.20;99.90;;;;;;5090807;28;19927;-85
2023/05/17 06:49:28;;;;;;;;;;;13.70;99.90;;;;;;5090695;28;20639;-86
2023/05/17 06:51:56;;;;;;;;;;;13.70;99.90;;;;;;5106711;28;19927;-86
2023/05/17 06:54:21;;;;;;;;;;;14.20;99.90;;;;;;5103222;28;19977;-85
2023/05/17 06:56:47;;;;;;;;;;;13.60;99.90;;;;;;5105039;28;19931;-86
2023/05/17 06:59:12;;;;;;;;;;;13.10;99.90;;;;;;5107276;28;19931;-85
2023/05/17 07:01:38;;;;;;;;;;;13.80;99.90;;;;;;5088104;28;20030;-87
2023/05/17 07:04:04;;;;;;;;;;;13.40;99.90;;;;;;5106350;28;20347;-85
2023/05/17 07:06:30;;;;;;;;;;;13.40;99.90;;;;;;5107560;28;20004;-85
2023/05/17 07:08:55;;;;;;;;;;;13.70;99.90;;;;;;5106457;28;19923;-86
2023/05/17 07:11:21;;;;;;;;;;;13.80;99.90;;;;;;5089659;28;19927;-85
2023/05/17 07:13:48;;;;;;;;;;;14.10;99.90;;;;;;5089340;28;19923;-84
2023/05/17 07:16:14;;;;;;;;;;;13.30;99.90;;;;;;5107802;27;19927;-85
2023/05/17 07:18:39;;;;;;;;;;;13.10;99.90;;;;;;5093102;27;19934;-86
2023/05/17 07:21:05;;;;;;;;;;;13.20;99.90;;;;;;5093417;27;19934;-86
2023/05/17 07:23:30;;;;;;;;;;;13.30;99.90;;;;;;5109521;27;19928;-87
2023/05/17 07:25:56;;;;;;;;;;;13.60;99.90;;;;;;5092650;27;19923;-86
2023/05/17 07:28:21;;;;;;;;;;;13.40;99.90;;;;;;5108697;27;20412;-85
2023/05/17 07:30:47;;;;;;;;;;;13.60;99.90;;;;;;5107511;27;19931;-87
2023/05/17 07:33:13;;;;;;;;;;;13.70;99.90;;;;;;5109559;27;19931;-87
2023/05/17 07:35:38;;;;;;;;;;;14.30;99.90;;;;;;5109023;27;20114;-85
2023/05/17 07:38:04;;;;;;;;;;;14.30;99.90;;;;;;5110126;27;19935;-85
2023/05/17 07:40:29;;;;;;;;;;;14.00;99.90;;;;;;5112283;27;19944;-89
2023/05/17 07:42:55;;;;;;;;;;;14.40;99.90;;;;;;5109002;27;19953;-86
2023/05/17 07:45:20;;;;;;;;;;;14.90;99.90;;;;;;5108194;27;19970;-87
2023/05/17 07:47:46;;;;;;;;;;;14.30;99.90;;;;;;5109228;27;20292;-85
2023/05/17 07:50:12;;;;;;;;;;;14.80;99.90;;;;;;5109157;27;19935;-85
2023/05/17 07:52:37;;;;;;;;;;;15.30;99.90;;;;;;5092396;27;19938;-82
2023/05/17 07:55:04;;;;;;;;;;;15.40;99.90;;;;;;5127784;27;19934;-87
2023/05/17 07:57:30;;;;;;;;;;;15.40;99.90;;;;;;5108589;27;19924;-85
2023/05/17 07:59:55;;;;;;;;;;;14.90;99.90;;;;;;5108004;27;19975;-86
2023/05/17 08:02:21;;;;;;;;;;;14.20;99.90;;;;;;5088643;27;20053;-85
2023/05/17 08:04:47;;;;;;;;;;;13.80;99.90;;;;;;5084504;27;19927;-83
2023/05/17 08:07:12;;;;;;;;;;;13.70;99.90;;;;;;5103101;27;20413;-88
2023/05/17 08:09:39;;;;;;;;;;;13.30;99.90;;;;;;5098159;27;20380;-84
2023/05/17 08:12:04;;;;;;;;;;;13.40;99.90;;;;;;5106061;27;20432;-85
2023/05/17 08:14:30;;;;;;;;;;;13.10;99.90;;;;;;5126157;27;20071;-84
2023/05/17 08:16:56;;;;;;;;;;;13.20;99.90;;;;;;5107519;27;19931;-86
2023/05/17 08:19:21;;;;;;;;;;;13.10;99.90;;;;;;5105498;27;19924;-85
2023/05/17 08:21:48;;;;;;;;;;;13.80;99.90;;;;;;5126368;27;20420;-86
2023/05/17 08:24:14;;;;;;;;;;;14.30;99.90;;;;;;5107456;27;19931;-85
2023/05/17 08:26:39;;;;;;;;;;;14.50;99.90;;;;;;5106675;27;19950;-86
2023/05/17 08:29:05;;;;;;;;;;;14.50;99.90;;;;;;5124460;27;19928;-86
2023/05/17 08:31:31;;;;;;;;;;;14.00;99.90;;;;;;5092633;27;19923;-87
2023/05/17 08:33:57;;;;;;;;;;;14.40;99.90;;;;;;5092099;27;19927;-88
2023/05/17 08:36:23;;;;;;;;;;;13.60;99.90;;;;;;5091899;27;19930;-85
2023/05/17 08:38:48;;;;;;;;;;;13.20;99.90;;;;;;5127279;27;19927;-88
2023/05/17 08:41:14;;;;;;;;;;;13.10;99.90;;;;;;5104065;27;19931;-87
2023/05/17 08:43:40;;;;;;;;;;;13.00;99.90;;;;;;5089821;27;19974;-87
2023/05/17 08:46:06;;;;;;;;;;;12.70;99.90;;;;;;5088294;27;19931;-87
2023/05/17 08:48:35;;;;;;;;;;;12.80;99.90;;;;;;5087469;27;19923;-86
2023/05/17 08:51:01;;;;;;;;;;;13.10;99.90;;;;;;5091657;27;19998;-87
2023/05/17 08:53:27;;;;;;;;;;;13.20;99.90;;;;;;5109905;27;19934;-86
2023/05/17 08:55:56;;;;;;;;;;;13.20;99.90;;;;;;5106915;27;19924;-84
2023/05/17 08:58:25;;;;;;;;;;;13.30;99.90;;;;;;5108062;27;19952;-85
2023/05/17 09:00:53;;;;;;;;;;;13.40;99.90;;;;;;5105169;27;19930;-84
2023/05/17 09:03:19;;;;;;;;;;;13.50;99.90;;;;;;5104157;27;19927;-85
2023/05/17 09:05:45;;;;;;;;;;;13.50;99.90;;;;;;5102145;27;19928;-86
2023/05/17 09:08:12;;;;;;;;;;;13.40;99.90;;;;;;5088074;27;19938;-89
2023/05/17 09:10:39;;;;;;;;;;;13.70;99.90;;;;;;5088186;27;19939;-86
2023/05/17 09:13:05;;;;;;;;;;;13.80;99.90;;;;;;5108501;27;19927;-85
2023/05/17 09:15:33;;;;;;;;;;;13.90;99.90;;;;;;5108244;27;20517;-85
2023/05/17 09:17:58;;;;;;;;;;;14.10;99.90;;;;;;5103491;27;19932;-85
2023/05/17 09:20:35;;;;;;;;;;;13.50;99.90;;;;;;5091168;27;19950;-87
2023/05/17 09:23:01;;;;;;;;;;;13.50;99.90;;;;;;5107548;27;19928;-86
2023/05/17 09:25:28;;;;;;;;;;;13.50;99.90;;;;;;5103168;27;19931;-86
2023/05/17 09:27:54;;;;;;;;;;;13.80;99.90;;;;;;5106251;27;19927;-85
2023/05/17 09:30:25;;;;;;;;;;;14.10;99.90;;;;;;5104495;27;20064;-88
2023/05/17 09:32:52;;;;;;;;;;;13.90;99.90;;;;;;5106757;27;20352;-86
2023/05/17 09:35:18;;;;;;;;;;;13.90;99.90;;;;;;5106192;27;19977;-86
2023/05/17 09:37:45;;;;;;;;;;;14.20;99.90;;;;;;5106601;27;19970;-87
2023/05/17 09:40:20;;;;;;;;;;;14.60;99.90;;;;;;5105461;27;20023;-85
2023/05/17 09:42:47;;;;;;;;;;;14.30;99.90;;;;;;5105416;27;19942;-87
2023/05/17 09:45:19;;;;;;;;;;;14.10;99.90;;;;;;5105624;27;19938;-86
2023/05/17 09:47:45;;;;;;;;;;;14.10;99.90;;;;;;5104892;27;19938;-85
2023/05/17 09:50:15;;;;;;;;;;;14.60;99.90;;;;;;5106971;27;19931;-87
2023/05/17 09:52:41;;;;;;;;;;;14.30;99.90;;;;;;5105353;27;20696;-84
2023/05/17 09:55:08;;;;;;;;;;;14.30;99.90;;;;;;5105311;28;19963;-84
2023/05/17 09:57:36;;;;;;;;;;;14.20;99.90;;;;;;5105713;28;20078;-88
2023/05/17 10:00:07;;;;;;;;;;;14.20;99.90;;;;;;5107981;27;19935;-86
2023/05/17 10:02:35;;;;;;;;;;;14.30;99.90;;;;;;5086004;28;20014;-85
2023/05/17 10:05:04;;;;;;;;;;;13.70;99.90;;;;;;5106289;28;19964;-85
2023/05/17 10:07:30;;;;;;;;;;;13.80;99.90;;;;;;5104881;28;19988;-82
2023/05/17 10:09:57;;;;;;;;;;;14.40;99.90;;;;;;5103974;28;20018;-88
2023/05/17 10:12:24;;;;;;;;;;;14.20;99.90;;;;;;5108124;28;19923;-88
2023/05/17 10:14:50;;;;;;;;;;;14.00;99.90;;;;;;5107650;28;20395;-85
2023/05/17 10:17:16;;;;;;;;;;;13.90;99.90;;;;;;5107032;28;19927;-85
2023/05/17 10:19:42;;;;;;;;;;;14.30;99.90;;;;;;5105388;28;19927;-89
2023/05/17 10:22:08;;;;;;;;;;;14.00;99.90;;;;;;5087345;28;20392;-84
2023/05/17 10:24:38;;;;;;;;;;;14.60;99.90;;;;;;5102867;28;20355;-84
2023/05/17 10:27:05;;;;;;;;;;;14.90;99.90;;;;;;5104035;28;19973;-84
2023/05/17 10:29:31;;;;;;;;;;;14.80;99.90;;;;;;5105700;28;19935;-85
2023/05/17 10:31:57;;;;;;;;;;;14.40;99.90;;;;;;5104214;28;19978;-87
2023/05/17 10:34:24;;;;;;;;;;;14.50;99.90;;;;;;5087796;28;19974;-86
2023/05/17 10:36:50;;;;;;;;;;;15.10;99.90;;;;;;5102009;28;19930;-85
2023/05/17 10:39:16;;;;;;;;;;;15.00;99.90;;;;;;5105429;28;19946;-86
2023/05/17 10:41:43;;;;;;;;;;;14.60;99.90;;;;;;5088803;28;20300;-84
2023/05/17 10:44:11;;;;;;;;;;;14.80;99.90;;;;;;5099542;28;20444;-87
2023/05/17 10:46:36;;;;;;;;;;;14.40;99.90;;;;;;5104961;28;19928;-85
2023/05/17 10:49:02;;;;;;;;;;;14.30;99.90;;;;;;5099909;27;19995;-85
2023/05/17 10:51:32;;;;;;;;;;;15.20;99.90;;;;;;5108274;27;19987;-87
2023/05/17 10:54:06;;;;;;;;;;;15.70;99.90;;;;;;5106368;27;19935;-87
2023/05/17 10:56:32;;;;;;;;;;;16.90;99.90;;;;;;5106060;27;20008;-87
2023/05/17 10:59:13;;;;;;;;;;;15.50;99.90;;;;;;5103570;27;19956;-85
2023/05/17 11:01:54;;;;;;;;;;;15.30;99.90;;;;;;5107778;27;19957;-88
2023/05/17 11:04:22;;;;;;;;;;;14.90;99.90;;;;;;5080971;27;19923;-87
2023/05/17 11:06:50;;;;;;;;;;;15.00;99.40;;;;;;5084064;28;19998;-85
2023/05/17 11:09:16;;;;;;;;;;;16.20;99.90;;;;;;5109085;27;19928;-85
2023/05/17 11:12:01;;;;;;;;;;;16.40;99.90;;;;;;5106520;27;19950;-83
2023/05/17 11:14:27;;;;;;;;;;;15.70;99.90;;;;;;5102012;27;19927;-86
2023/05/17 11:16:55;;;;;;;;;;;15.40;99.90;;;;;;5087716;27;19929;-88
2023/05/17 11:19:21;;;;;;;;;;;14.80;99.90;;;;;;5108988;27;19923;-84
2023/05/17 11:21:47;;;;;;;;;;;15.10;99.90;;;;;;5124837;27;19930;-84
2023/05/17 11:24:16;;;;;;;;;;;14.40;99.90;;;;;;5107111;27;19970;-86
2023/05/17 11:26:44;;;;;;;;;;;14.20;99.90;;;;;;5085850;27;19992;-85
2023/05/17 11:29:10;;;;;;;;;;;14.80;99.90;;;;;;5105453;27;19935;-85
2023/05/17 11:31:36;;;;;;;;;;;15.00;99.90;;;;;;5103798;27;20686;-85
2023/05/17 11:34:05;;;;;;;;;;;15.10;99.90;;;;;;5101331;27;19931;-86
2023/05/17 11:36:31;;;;;;;;;;;15.90;99.10;;;;;;5103985;27;19931;-86
2023/05/17 11:39:13;;;;;;;;;;;16.40;99.90;;;;;;5107694;27;19942;-85
2023/05/17 11:41:42;;;;;;;;;;;16.20;99.90;;;;;;5121290;27;19985;-88
2023/05/17 11:44:08;;;;;;;;;;;15.90;99.90;;;;;;5107128;27;19935;-85
2023/05/17 11:46:34;;;;;;;;;;;15.40;99.10;;;;;;5107675;27;19934;-85
2023/05/17 11:49:00;;;;;;;;;;;15.60;99.90;;;;;;5103548;27;19928;-86
2023/05/17 11:51:26;;;;;;;;;;;15.30;97.70;;;;;;5104833;27;19934;-85
2023/05/17 11:53:55;;;;;;;;;;;15.20;97.60;;;;;;5126700;27;19931;-87
2023/05/17 11:56:25;;;;;;;;;;;15.40;99.90;;;;;;5106569;27;19927;-87
2023/05/17 11:58:51;;;;;;;;;;;15.70;99.90;;;;;;5107561;27;20056;-86
2023/05/17 12:01:17;;;;;;;;;;;14.70;97.50;;;;;;5122076;27;19928;-85
2023/05/17 12:03:42;;;;;;;;;;;15.30;97.00;;;;;;5089320;27;19930;-86
2023/05/17 12:06:12;;;;;;;;;;;16.10;99.90;;;;;;5086832;27;20408;-84
2023/05/17 12:08:39;;;;;;;;;;;15.30;99.50;;;;;;5087208;27;19931;-85
2023/05/17 12:11:06;;;;;;;;;;;15.00;99.90;;;;;;5102410;27;20062;-85
2023/05/17 12:13:32;;;;;;;;;;;15.80;99.70;;;;;;5096645;27;19967;-85
2023/05/17 12:15:58;;;;;;;;;;;16.80;99.30;;;;;;5099761;27;20066;-88
2023/05/17 12:18:35;;;;;;;;;;;16.20;99.90;;;;;;5103398;27;19968;-85
2023/05/17 12:21:00;;;;;;;;;;;15.00;97.00;;;;;;5104965;27;19927;-84
2023/05/17 12:23:30;;;;;;;;;;;15.40;99.90;;;;;;5103875;27;19927;-85
2023/05/17 12:26:00;;;;;;;;;;;16.10;99.90;;;;;;5103037;27;20410;-84
2023/05/17 12:28:26;;;;;;;;;;;16.30;99.30;;;;;;5102568;27;19927;-84
2023/05/17 12:30:53;;;;;;;;;;;16.00;98.90;;;;;;5103790;27;19931;-83
2023/05/17 12:33:18;;;;;;;;;;;15.80;97.70;;;;;;5093381;27;19932;-87
2023/05/17 12:35:44;;;;;;;;;;;15.70;99.90;;;;;;5102079;27;19950;-84
2023/05/17 12:38:10;;;;;;;;;;;15.60;97.70;;;;;;5086651;27;20014;-85
2023/05/17 12:40:38;;;;;;;;;;;16.70;99.90;;;;;;5103952;27;19927;-83
2023/05/17 12:43:04;;;;;;;;;;;16.10;98.10;;;;;;5101483;27;19974;-85
2023/05/17 12:46:07;;;;;;;;;;;16.00;99.90;;;;;;5085570;27;19974;-84
2023/05/17 12:48:34;;;;;;;;;;;16.00;98.30;;;;;;5095242;27;19932;-85
2023/05/17 12:51:07;;;;;;;;;;;17.20;99.90;;;;;;5085086;27;19932;-87
2023/05/17 12:53:37;;;;;;;;;;;16.90;97.50;;;;;;5085060;27;19930;-88
2023/05/17 12:56:03;;;;;;;;;;;17.20;98.50;;;;;;5101509;27;19923;-90
2023/05/17 12:58:28;;;;;;;;;;;16.90;97.40;;;;;;5090217;27;19928;-85
2023/05/17 13:00:55;;;;;;;;;;;17.80;98.80;;;;;;5103987;27;19980;-86
2023/05/17 13:03:21;;;;;;;;;;;17.40;96.30;;;;;;5105861;27;20031;-84
2023/05/17 13:05:56;;;;;;;;;;;18.20;99.60;;;;;;5124878;27;20414;-85
2023/05/17 13:08:23;;;;;;;;;;;18.40;99.90;;;;;;5105502;27;20277;-89
2023/05/17 13:10:48;;;;;;;;;;;17.60;95.90;;;;;;5086061;27;19931;-84
2023/05/17 13:13:18;;;;;;;;;;;18.40;99.50;;;;;;5103752;27;19927;-87
2023/05/17 13:15:45;;;;;;;;;;;18.00;98.70;;;;;;5104870;27;19930;-89
2023/05/17 13:18:11;;;;;;;;;;;17.40;99.00;;;;;;5102784;27;19931;-85
2023/05/17 13:20:37;;;;;;;;;;;17.10;96.50;;;;;;5103653;27;19980;-89
2023/05/17 13:23:04;;;;;;;;;;;18.20;99.90;;;;;;5107500;27;20689;-91
2023/05/17 13:25:30;;;;;;;;;;;17.60;93.60;;;;;;5087918;27;19979;-89
2023/05/17 13:27:56;;;;;;;;;;;17.80;97.50;;;;;;5107623;27;20031;-93
2023/05/17 13:30:24;;;;;;;;;;;16.30;95.20;;;;;;5104935;27;20018;-87
2023/05/17 13:32:50;;;;;;;;;;;15.80;94.50;;;;;;5104884;27;20063;-87
2023/05/17 13:35:15;;;;;;;;;;;16.30;99.20;;;;;;5102782;27;20014;-88
2023/05/17 13:37:41;;;;;;;;;;;16.60;99.90;;;;;;5099699;27;19924;-88
2023/05/17 13:40:07;;;;;;;;;;;17.30;97.90;;;;;;5104236;27;19927;-87
2023/05/17 13:42:32;;;;;;;;;;;17.70;95.80;;;;;;5079373;27;19934;-86
2023/05/17 13:45:00;;;;;;;;;;;17.00;97.80;;;;;;5101671;27;19931;-89
2023/05/17 13:47:28;;;;;;;;;;;16.00;96.70;;;;;;5105463;27;19927;-90
2023/05/17 13:49:54;;;;;;;;;;;15.30;94.80;;;;;;5102182;28;20015;-87
2023/05/17 13:52:19;;;;;;;;;;;15.90;97.00;;;;;;5102912;27;20072;-86
2023/05/17 13:54:45;;;;;;;;;;;16.90;99.80;;;;;;5102583;27;20047;-86
2023/05/17 13:57:11;;;;;;;;;;;17.90;99.80;;;;;;5086529;28;19935;-84
2023/05/17 13:59:38;;;;;;;;;;;17.90;97.60;;;;;;5106842;28;20013;-86
2023/05/17 14:02:03;;;;;;;;;;;16.50;94.20;;;;;;5103173;27;20575;-89
2023/05/17 14:04:29;;;;;;;;;;;16.60;96.00;;;;;;5105688;28;19924;-87
2023/05/17 14:06:55;;;;;;;;;;;16.60;97.40;;;;;;5107487;27;19927;-94
2023/05/17 14:09:20;;;;;;;;;;;17.00;97.90;;;;;;5089960;28;19927;-87
2023/05/17 14:11:46;;;;;;;;;;;17.50;98.20;;;;;;5092083;28;19930;-87
2023/05/17 14:14:11;;;;;;;;;;;17.20;97.20;;;;;;5103924;28;19934;-84
2023/05/17 14:16:37;;;;;;;;;;;17.80;97.10;;;;;;5102225;28;19951;-86
2023/05/17 14:19:03;;;;;;;;;;;17.90;95.80;;;;;;5104049;28;20831;-88